Marble Point, Antarctica

12:57 AM GMT on April 27, 2015 (GMT +0000)
Williams Field | | Change Station
CLOSE
Current Station
Airport
Location: Williams Field,
Elevation: 79 ft
Nearby Weather Stations

Elev 79 ft 77.85 °S, 166.67 °E | Updated 1 hour ago

Light Snow
Light Snow
-6 °F
Feels Like -6 °F
N
0
Wind Variable Wind from North

Today
High -- | Low -- °F
--% Chance of Precip.
Yesterday
High -- | Low -- °F
Precip. -- in
0:30 AM 1:35 AM
First Quarter, 60% visible
Pressure 29.17 in
Visibility 6.2 miles
Clouds Few 3500 ft
Mostly Cloudy 5500 ft
Dew Point -15 °F
Humidity 65%
Rainfall 0.00 in
Snow Depth Not available.
UV 0 out of 12
Pollen Not available.
Air Quality Not available.
Flu Activity Not available.
METAR NZCM 262355Z 00000KT 9999 -SN FEW035 BKN055 M21/M26 A2915 RMK PK WND 04028/1802 SLP877

More Conditions Fewer Conditions

Pressure 29.17 in
Visibility 6.2 miles
Clouds Few 3500 ft
Mostly Cloudy 5500 ft
Dew Point -15 °F
Humidity 65%
Rainfall 0.00 in
Snow Depth Not available.
UV 0 out of 12
Pollen Not available.
Air Quality Not available.
Flu Activity Not available.
METAR NZCM 262355Z 00000KT 9999 -SN FEW035 BKN055 M21/M26 A2915 RMK PK WND 04028/1802 SLP877

More Conditions Fewer Conditions

10-Day Weather Forecast

Almanac

Astronomy

Apr. 27, 2015 Rise Set
Actual Time
Civil Twilight
Nautical Twilight
Astronomical Twilight
Moon
Length of Visible Light
Length of Day
Tomorrow will be .
, % of the Moon is Illuminated

Today's Extremes

Country Highs Country Lows

Community

WunderPhotos

Upload Photos

1,817,184 photos uploaded!

WunderBlogs® & News

Nearby

Air Quality

  Air Quality AQ Index Pollutant
Not available.

Snow Depth

Station Depth Elevation

Earthquake Activity

City Distance Mag. Time & Date
Minimum magnitude displayed is 2.5.

Coastal Water Temperatures

Place Temperature

Stations

Nearby Weather Stations

Station Location Temp. Windchill Dew Point Humidity Wind Precip. Elev Updated Type